createdAt,value
2022-10-15T00:00:34.815Z,100095.38
2022-10-15T00:03:01.238Z,100094.97
2022-10-15T00:05:27.503Z,100090.97
2022-10-15T00:07:53.777Z,100090.53
2022-10-15T00:10:20.034Z,100089.75
2022-10-15T00:12:46.377Z,100088.16
2022-10-15T00:15:12.772Z,100086.13
2022-10-15T00:17:39.291Z,100082.53
2022-10-15T00:20:06.765Z,100082.53
2022-10-15T00:22:33.031Z,100081.72
2022-10-15T00:24:59.245Z,100083.31
2022-10-15T00:27:25.517Z,100082.53
2022-10-15T00:29:51.938Z,100081.72
2022-10-15T00:32:18.438Z,100076.09
2022-10-15T00:34:44.722Z,100086.16
2022-10-15T00:37:11.147Z,100074.50
2022-10-15T00:39:37.691Z,100074.09
2022-10-15T00:42:04.607Z,100068.88
2022-10-15T00:44:30.867Z,100070.09
2022-10-15T00:47:07.338Z,100064.06
2022-10-15T00:49:35.547Z,100062.47
2022-10-15T00:52:05.073Z,100070.91
2022-10-15T00:54:33.954Z,100069.31
2022-10-15T00:57:00.640Z,100073.34
2022-10-15T00:59:27.495Z,100060.88
2022-10-15T01:01:54.430Z,100062.09
2022-10-15T01:04:21.059Z,100059.28
2022-10-15T01:06:47.477Z,100055.25
2022-10-15T01:09:13.972Z,100061.66
2022-10-15T01:11:42.468Z,100063.25
2022-10-15T01:14:17.948Z,100059.22
2022-10-15T01:17:10.521Z,100061.66
2022-10-15T01:19:46.067Z,100059.63
2022-10-15T01:22:18.666Z,100058.44
2022-10-15T01:25:03.901Z,100056.03
2022-10-15T01:27:30.357Z,100055.59
2022-10-15T01:30:11.644Z,100051.16
2022-10-15T01:32:58.115Z,100050.34
2022-10-15T01:35:42.873Z,100057.97
2022-10-15T01:38:22.460Z,100062.38
2022-10-15T01:40:51.996Z,100045.88
2022-10-15T01:43:25.263Z,100056.75
2022-10-15T01:45:56.555Z,100056.31
2022-10-15T01:48:25.949Z,100053.09
2022-10-15T01:50:53.971Z,100056.69
2022-10-15T01:53:26.589Z,100057.91
2022-10-15T01:56:01.681Z,100064.75
2022-10-15T01:58:29.893Z,100068.00
2022-10-15T02:00:57.287Z,100058.34
2022-10-15T02:03:23.612Z,100061.59
2022-10-15T02:05:56.241Z,100065.19
2022-10-15T02:08:45.662Z,100061.19
2022-10-15T02:11:14.517Z,100060.81
2022-10-15T02:13:59.733Z,100055.16
2022-10-15T02:16:42.904Z,100056.38
2022-10-15T02:19:15.179Z,100055.16
2022-10-15T02:21:52.469Z,100054.38
2022-10-15T02:24:22.226Z,100058.78
2022-10-15T02:26:48.915Z,100058.41
2022-10-15T02:29:18.062Z,100049.53
2022-10-15T02:31:46.632Z,100047.09
2022-10-15T02:34:18.019Z,100050.72
2022-10-15T02:36:44.744Z,100042.66
2022-10-15T02:39:12.281Z,100052.72
2022-10-15T02:41:38.936Z,100047.88
2022-10-15T02:44:05.373Z,100053.09
2022-10-15T02:46:31.707Z,100046.28
2022-10-15T02:48:58.018Z,100042.25
2022-10-15T02:51:24.473Z,100043.84
2022-10-15T02:53:50.687Z,100045.44
2022-10-15T02:56:17.082Z,100055.50
2022-10-15T02:58:43.345Z,100057.09
2022-10-15T03:01:09.656Z,100052.31
2022-10-15T03:03:36.130Z,100058.31
2022-10-15T03:06:03.097Z,100051.47
2022-10-15T03:08:29.533Z,100056.69
2022-10-15T03:10:55.789Z,100049.44
2022-10-15T03:13:22.374Z,100053.44
2022-10-15T03:15:48.586Z,100049.00
2022-10-15T03:18:14.855Z,100063.88
2022-10-15T03:20:41.308Z,100062.25
2022-10-15T03:23:07.591Z,100069.50
2022-10-15T03:25:34.004Z,100060.66
2022-10-15T03:28:00.265Z,100065.44
2022-10-15T03:30:26.735Z,100048.13
2022-10-15T03:32:53.058Z,100053.34
2022-10-15T03:35:19.457Z,100047.28
2022-10-15T03:37:45.736Z,100044.88
2022-10-15T03:40:13.715Z,100046.47
2022-10-15T03:42:41.119Z,100044.03
2022-10-15T03:45:07.761Z,100041.22
2022-10-15T03:47:34.031Z,100032.34
2022-10-15T03:50:00.354Z,100029.13
2022-10-15T03:52:26.764Z,100035.56
2022-10-15T03:54:53.344Z,100030.72
2022-10-15T03:57:19.604Z,100035.94
2022-10-15T03:59:46.064Z,100050.03
2022-10-15T04:02:12.394Z,100035.94
2022-10-15T04:04:38.744Z,100029.91
2022-10-15T04:07:04.954Z,100035.13
2022-10-15T04:09:31.386Z,100026.66
2022-10-15T04:11:57.808Z,100024.28
2022-10-15T04:14:24.084Z,100030.72
2022-10-15T04:16:50.499Z,100025.06
2022-10-15T04:19:17.555Z,100028.28
2022-10-15T04:21:43.821Z,100025.47
2022-10-15T04:24:10.094Z,100028.72
2022-10-15T04:26:36.314Z,100029.50
2022-10-15T04:29:02.812Z,100023.06
2022-10-15T04:31:29.229Z,100031.94
2022-10-15T04:33:55.492Z,100033.53
2022-10-15T04:36:21.702Z,100036.00
2022-10-15T04:38:47.990Z,100037.19
2022-10-15T04:41:14.334Z,100040.06
2022-10-15T04:43:40.734Z,100042.47
2022-10-15T04:46:08.173Z,100049.31
2022-10-15T04:48:37.644Z,100044.09
2022-10-15T04:51:07.618Z,100048.13
2022-10-15T04:53:34.228Z,100047.75
2022-10-15T04:56:02.922Z,100048.97
2022-10-15T04:58:30.152Z,100049.38
2022-10-15T05:00:59.178Z,100055.00
2022-10-15T05:03:25.446Z,100056.19
2022-10-15T05:05:51.792Z,100048.97
2022-10-15T05:08:18.237Z,100054.22
2022-10-15T05:10:44.494Z,100042.16
2022-10-15T05:13:10.911Z,100045.78
2022-10-15T05:15:37.347Z,100050.19
2022-10-15T05:18:03.714Z,100058.25
2022-10-15T05:20:30.167Z,100063.06
2022-10-15T05:22:56.420Z,100052.22
2022-10-15T05:25:22.657Z,100045.00
2022-10-15T05:27:51.291Z,100047.41
2022-10-15T05:30:17.645Z,100041.41
2022-10-15T05:32:44.071Z,100042.63
2022-10-15T05:35:10.343Z,100045.81
2022-10-15T05:37:36.544Z,100043.44
2022-10-15T05:40:02.807Z,100038.22
2022-10-15T05:42:29.212Z,100049.03
2022-10-15T05:44:55.539Z,100049.03
2022-10-15T05:47:22.177Z,100043.03
2022-10-15T05:49:48.622Z,100053.09
2022-10-15T05:52:15.117Z,100044.25
2022-10-15T05:54:41.552Z,100043.03
2022-10-15T05:57:08.015Z,100039.44
2022-10-15T05:59:34.448Z,100040.66
2022-10-15T06:02:00.763Z,100046.66
2022-10-15T06:04:29.509Z,100037.41
2022-10-15T06:06:58.356Z,100037.84
2022-10-15T06:09:25.371Z,100037.03
2022-10-15T06:11:51.642Z,100035.44
2022-10-15T06:14:18.106Z,100038.66
2022-10-15T06:16:44.472Z,100043.91
2022-10-15T06:19:10.955Z,100054.75
2022-10-15T06:21:37.250Z,100062.03
2022-10-15T06:24:06.315Z,100075.31
2022-10-15T06:26:35.477Z,100073.31
2022-10-15T06:29:01.880Z,100076.97
2022-10-15T06:31:28.294Z,100081.38
2022-10-15T06:33:54.723Z,100084.22
2022-10-15T06:36:21.859Z,100083.41
2022-10-15T06:38:48.304Z,100073.78
2022-10-15T06:41:14.815Z,100076.59
2022-10-15T06:43:41.413Z,100077.81
2022-10-15T06:46:07.713Z,100082.22
2022-10-15T06:48:34.228Z,100083.41
2022-10-15T06:51:01.278Z,100088.22
2022-10-15T06:53:28.354Z,100083.38
2022-10-15T06:55:58.192Z,100085.78
2022-10-15T06:58:24.499Z,100081.72
2022-10-15T07:00:50.739Z,100082.09
2022-10-15T07:03:16.965Z,100083.28
2022-10-15T07:05:43.224Z,100089.69
2022-10-15T07:08:09.475Z,100087.69
2022-10-15T07:10:35.981Z,100093.31
2022-10-15T07:13:02.222Z,100088.84
2022-10-15T07:15:28.981Z,100084.44
2022-10-15T07:18:02.437Z,100096.88
2022-10-15T07:20:29.356Z,100096.47
2022-10-15T07:22:56.332Z,100095.63
2022-10-15T07:25:23.122Z,100095.63
2022-10-15T07:27:49.522Z,100102.47
2022-10-15T07:30:18.426Z,100110.06
2022-10-15T07:32:46.466Z,100096.75
2022-10-15T07:35:12.999Z,100100.72
2022-10-15T07:37:39.239Z,100109.97
2022-10-15T07:40:06.678Z,100103.47
2022-10-15T07:42:33.060Z,100107.47
2022-10-15T07:44:59.692Z,100101.38
2022-10-15T07:47:26.196Z,100104.56
2022-10-15T07:49:52.633Z,100104.53
2022-10-15T07:52:18.855Z,100099.66
2022-10-15T07:54:45.310Z,100100.03
2022-10-15T07:57:11.679Z,100096.81
2022-10-15T07:59:37.947Z,100100.03
2022-10-15T08:02:04.925Z,100099.59
2022-10-15T08:04:31.250Z,100095.56
2022-10-15T08:06:57.483Z,100101.19
2022-10-15T08:09:23.766Z,100103.22
2022-10-15T08:11:49.991Z,100098.00
2022-10-15T08:14:16.279Z,100091.13
2022-10-15T08:16:42.547Z,100101.63
2022-10-15T08:19:08.848Z,100100.41
2022-10-15T08:21:35.066Z,100096.38
2022-10-15T08:24:01.278Z,100090.28
2022-10-15T08:26:27.603Z,100084.19
2022-10-15T08:28:53.998Z,100082.94
2022-10-15T08:31:20.286Z,100078.41
2022-10-15T08:33:46.503Z,100081.53
2022-10-15T08:36:12.840Z,100081.03
2022-10-15T08:38:39.083Z,100074.50
2022-10-15T08:41:14.021Z,100077.22
2022-10-15T08:43:42.158Z,100066.31
2022-10-15T08:46:14.562Z,100071.84
2022-10-15T08:48:44.310Z,100068.13
2022-10-15T08:51:11.724Z,100065.25
2022-10-15T08:53:40.700Z,100064.75
2022-10-15T08:56:13.380Z,100050.94
2022-10-15T08:58:51.181Z,100055.28
2022-10-15T09:01:20.543Z,100061.25
2022-10-15T09:03:54.291Z,100064.84
2022-10-15T09:06:25.983Z,100066.38
2022-10-15T09:09:10.871Z,100079.63
2022-10-15T09:11:55.877Z,100082.41
2022-10-15T09:14:33.307Z,100088.81
2022-10-15T09:17:03.874Z,100089.94
2022-10-15T09:19:31.216Z,100084.59
2022-10-15T09:22:01.280Z,100082.88
2022-10-15T09:24:28.867Z,100075.53
2022-10-15T09:27:01.492Z,100063.78
2022-10-15T09:29:36.878Z,100062.84
2022-10-15T09:32:06.146Z,100067.97
2022-10-15T09:34:52.847Z,100062.63
2022-10-15T09:37:26.128Z,100058.84
2022-10-15T09:40:11.232Z,100066.06
2022-10-15T09:42:42.768Z,100055.47
2022-10-15T09:45:12.908Z,100061.09
2022-10-15T09:47:42.987Z,100055.38
2022-10-15T09:50:10.694Z,100060.09
2022-10-15T09:52:47.804Z,100041.75
2022-10-15T09:55:23.542Z,100043.13
2022-10-15T09:57:52.539Z,100043.34
2022-10-15T10:00:19.878Z,100040.66
2022-10-15T10:03:03.182Z,100044.84
2022-10-15T10:05:31.207Z,100045.53
2022-10-15T10:08:07.915Z,100045.69
2022-10-15T10:10:35.096Z,100034.31
2022-10-15T10:13:01.546Z,100046.72
2022-10-15T10:15:41.020Z,100040.19
2022-10-15T10:18:17.639Z,100027.97
2022-10-15T10:20:52.477Z,100039.66
2022-10-15T10:23:23.766Z,100040.84
2022-10-15T10:25:50.467Z,100031.47
2022-10-15T10:28:25.080Z,100021.72
2022-10-15T10:30:57.554Z,100015.63
2022-10-15T10:33:29.488Z,100016.88
2022-10-15T10:35:56.825Z,100021.28
2022-10-15T10:38:25.246Z,100016.34
2022-10-15T10:40:55.528Z,100014.56
2022-10-15T10:43:27.330Z,100007.94
2022-10-15T10:46:01.811Z,100008.19
2022-10-15T10:48:31.561Z,100009.72
2022-10-15T10:51:09.007Z,99995.13
2022-10-15T10:53:41.491Z,99999.88
2022-10-15T10:56:10.476Z,99999.78
2022-10-15T10:58:36.705Z,100013.09
2022-10-15T11:01:03.179Z,100006.97
2022-10-15T11:03:29.463Z,100008.56
2022-10-15T11:06:09.957Z,100000.84
2022-10-15T11:08:36.194Z,99993.59
2022-10-15T11:11:21.386Z,99989.97
2022-10-15T11:13:47.651Z,99977.50
2022-10-15T11:16:20.754Z,99973.03
2022-10-15T11:18:46.999Z,99980.31
2022-10-15T11:21:25.460Z,99972.16
2022-10-15T11:24:10.616Z,99963.19
2022-10-15T11:27:11.756Z,99963.13
2022-10-15T11:29:56.563Z,99968.25
2022-10-15T11:33:05.741Z,99962.50
2022-10-15T11:35:52.534Z,99964.00
2022-10-15T11:38:38.369Z,99967.97
2022-10-15T11:41:34.112Z,99968.34
2022-10-15T11:44:20.418Z,99967.91
2022-10-15T11:46:49.734Z,99967.53
2022-10-15T11:49:15.971Z,99958.66
2022-10-15T11:51:54.626Z,99957.06
2022-10-15T11:54:34.978Z,99955.91
2022-10-15T11:57:02.205Z,99950.69
2022-10-15T11:59:50.377Z,99936.97
2022-10-15T12:02:23.086Z,99930.91
2022-10-15T12:05:00.904Z,99931.72
2022-10-15T12:07:31.249Z,99928.00
2022-10-15T12:10:09.199Z,99933.66
2022-10-15T12:12:47.095Z,99921.00
2022-10-15T12:15:19.404Z,99928.25
2022-10-15T12:17:48.527Z,99920.19
2022-10-15T12:20:20.990Z,99921.00
2022-10-15T12:22:47.193Z,99916.56
2022-10-15T12:25:39.826Z,99916.13
2022-10-15T12:28:13.988Z,99906.81
2022-10-15T12:30:42.623Z,99911.59
2022-10-15T12:33:34.921Z,99905.03
2022-10-15T12:36:21.578Z,99908.13
2022-10-15T12:38:59.361Z,99900.69
2022-10-15T12:41:40.240Z,99898.88
2022-10-15T12:46:58.708Z,99888.13
2022-10-15T12:49:30.325Z,99894.16
2022-10-15T12:51:57.483Z,99886.78
2022-10-15T12:54:33.008Z,99885.41
2022-10-15T12:56:59.707Z,99889.41
2022-10-15T12:59:31.087Z,99900.31
2022-10-15T13:01:57.601Z,99890.56
2022-10-15T13:04:23.856Z,99879.22
2022-10-15T13:06:51.048Z,99889.31
2022-10-15T13:09:28.711Z,99880.00
2022-10-15T13:11:56.979Z,99873.88
2022-10-15T13:14:29.095Z,99867.72
2022-10-15T13:16:56.432Z,99872.97
2022-10-15T13:19:25.717Z,99875.69
2022-10-15T13:21:53.905Z,99882.06
2022-10-15T13:24:21.348Z,99879.91
2022-10-15T13:26:47.887Z,99888.31
2022-10-15T13:29:18.545Z,99889.00
2022-10-15T13:31:45.442Z,99898.69
2022-10-15T13:34:14.507Z,99899.06
2022-10-15T13:36:40.895Z,99884.38
2022-10-15T13:39:18.526Z,99894.50
2022-10-15T13:41:44.943Z,99889.16
2022-10-15T13:44:21.273Z,99886.31
2022-10-15T13:46:47.535Z,99879.41
2022-10-15T13:49:14.082Z,99883.81
2022-10-15T13:51:44.680Z,99880.97
2022-10-15T13:54:14.826Z,99878.16
2022-10-15T13:56:50.489Z,99882.56
2022-10-15T13:59:18.111Z,99883.72
2022-10-15T14:01:49.087Z,99884.50
2022-10-15T14:04:17.150Z,99877.91
2022-10-15T14:06:55.976Z,99879.84
2022-10-15T14:09:27.188Z,99885.06
2022-10-15T14:11:53.758Z,99877.69
2022-10-15T14:14:27.276Z,99881.66
2022-10-15T14:16:55.401Z,99886.53
2022-10-15T14:19:26.934Z,99889.38
2022-10-15T14:21:53.267Z,99894.75
2022-10-15T14:24:20.792Z,99887.91
2022-10-15T14:26:47.623Z,99891.69
2022-10-15T14:29:16.741Z,99888.47
2022-10-15T14:31:47.277Z,99895.88
2022-10-15T14:34:51.728Z,99889.41
2022-10-15T14:37:36.325Z,99885.41
2022-10-15T14:40:12.921Z,99891.97
2022-10-15T14:42:41.110Z,99886.75
2022-10-15T14:45:18.550Z,99898.59
2022-10-15T14:47:46.477Z,99892.91
2022-10-15T14:50:13.045Z,99884.84
2022-10-15T14:52:43.818Z,99890.16
2022-10-15T14:55:27.471Z,99889.00
2022-10-15T14:57:54.203Z,99893.53
2022-10-15T15:00:33.119Z,99899.31
2022-10-15T15:03:01.423Z,99896.59
2022-10-15T15:05:28.329Z,99900.81
2022-10-15T15:07:56.779Z,99898.38
2022-10-15T15:10:24.121Z,99890.00
2022-10-15T15:12:51.699Z,99891.22
2022-10-15T15:15:20.200Z,99895.31
2022-10-15T15:17:47.779Z,99898.16
2022-10-15T15:20:14.690Z,99900.66
2022-10-15T15:22:41.777Z,99886.47
2022-10-15T15:25:16.879Z,99894.19
2022-10-15T15:27:43.227Z,99894.63
2022-10-15T15:30:35.844Z,99884.53
2022-10-15T15:33:02.487Z,99877.72
2022-10-15T15:35:34.876Z,99897.22
2022-10-15T15:38:01.146Z,99903.69
2022-10-15T15:40:27.583Z,99900.06
2022-10-15T15:42:53.937Z,99891.22
2022-10-15T15:45:21.871Z,99891.66
2022-10-15T15:47:48.354Z,99916.84
2022-10-15T15:50:15.308Z,99929.53
2022-10-15T15:52:43.580Z,99934.97
2022-10-15T15:55:10.414Z,99923.81
2022-10-15T15:57:36.834Z,99936.16
2022-10-15T16:00:04.244Z,99937.56
2022-10-15T16:02:30.535Z,99939.00
2022-10-15T16:04:56.973Z,99927.84
2022-10-15T16:07:27.444Z,99937.34
2022-10-15T16:09:54.499Z,99949.63
2022-10-15T16:12:20.749Z,99949.84
2022-10-15T16:14:47.076Z,99955.66
2022-10-15T16:17:13.384Z,99950.53
2022-10-15T16:19:39.651Z,99951.50
2022-10-15T16:22:06.027Z,99954.41
2022-10-15T16:24:32.394Z,99956.53
2022-10-15T16:26:58.845Z,99965.56
2022-10-15T16:29:25.199Z,99968.09
2022-10-15T16:31:51.479Z,99969.06
2022-10-15T16:34:17.807Z,99978.91
2022-10-15T16:36:44.037Z,99982.25
2022-10-15T16:39:10.762Z,99974.63
2022-10-15T16:41:37.017Z,99983.22
2022-10-15T16:44:03.302Z,99986.91
2022-10-15T16:46:29.507Z,99993.03
2022-10-15T16:48:56.335Z,99985.41
2022-10-15T16:51:23.438Z,99987.06
2022-10-15T16:53:50.642Z,99995.66
2022-10-15T16:56:21.095Z,99992.44
2022-10-15T16:58:47.520Z,100000.19
2022-10-15T17:01:15.704Z,99997.47
2022-10-15T17:03:42.830Z,100005.22
2022-10-15T17:06:11.008Z,100012.19
2022-10-15T17:08:42.170Z,100019.50
2022-10-15T17:11:10.121Z,100025.28
2022-10-15T17:13:36.880Z,100031.44
2022-10-15T17:16:10.420Z,100038.72
2022-10-15T17:18:37.770Z,100047.28
2022-10-15T17:21:04.225Z,100050.09
2022-10-15T17:23:31.284Z,100054.16
2022-10-15T17:25:57.536Z,100065.94
2022-10-15T17:28:23.788Z,100076.44
2022-10-15T17:30:50.031Z,100077.66
2022-10-15T17:33:16.553Z,100092.63
2022-10-15T17:35:42.787Z,100088.97
2022-10-15T17:38:09.058Z,100109.22
2022-10-15T17:40:35.548Z,100118.94
2022-10-15T17:43:01.999Z,100126.25
2022-10-15T17:45:28.509Z,100133.59
2022-10-15T17:47:54.788Z,100136.88
2022-10-15T17:50:21.103Z,100132.41
2022-10-15T17:52:47.393Z,100154.69
2022-10-15T17:55:14.123Z,100162.78
2022-10-15T17:57:40.571Z,100174.09
2022-10-15T18:00:08.323Z,100181.78
2022-10-15T18:02:35.293Z,100183.03
2022-10-15T18:05:01.925Z,100197.19
2022-10-15T18:07:28.476Z,100196.38
2022-10-15T18:09:54.896Z,100185.50
2022-10-15T18:12:21.135Z,100189.13
2022-10-15T18:14:47.429Z,100192.41
2022-10-15T18:17:15.114Z,100198.06
2022-10-15T18:19:41.470Z,100206.53
2022-10-15T18:22:07.882Z,100201.28
2022-10-15T18:24:34.154Z,100204.91
2022-10-15T18:27:00.422Z,100213.84
2022-10-15T18:29:26.775Z,100217.09
2022-10-15T18:31:57.370Z,100223.97
2022-10-15T18:34:24.370Z,100227.22
2022-10-15T18:36:50.658Z,100222.06
2022-10-15T18:39:17.085Z,100225.72
2022-10-15T18:44:15.895Z,100227.91
2022-10-15T18:46:44.685Z,100234.06
2022-10-15T18:49:11.813Z,100234.53
2022-10-15T18:51:38.108Z,100233.41
2022-10-15T18:54:06.164Z,100235.47
2022-10-15T18:56:32.392Z,100227.44
2022-10-15T18:58:58.647Z,100243.63
2022-10-15T19:01:27.193Z,100238.44
2022-10-15T19:03:54.214Z,100239.72
2022-10-15T19:06:21.840Z,100247.88
2022-10-15T19:08:48.626Z,100253.56
2022-10-15T19:11:16.074Z,100253.22
2022-10-15T19:13:42.553Z,100254.06
2022-10-15T19:16:08.960Z,100255.75
2022-10-15T19:18:36.985Z,100258.59
2022-10-15T19:21:06.451Z,100259.47
2022-10-15T19:23:33.489Z,100252.31
2022-10-15T19:26:00.419Z,100253.97
2022-10-15T19:28:27.115Z,100249.22
2022-10-15T19:30:57.687Z,100254.88
2022-10-15T19:33:25.323Z,100259.81
2022-10-15T19:35:51.784Z,100263.50
2022-10-15T19:38:18.067Z,100264.78
2022-10-15T19:40:47.246Z,100267.22
2022-10-15T19:43:16.265Z,100265.69
2022-10-15T19:45:43.484Z,100266.53
2022-10-15T19:48:13.272Z,100282.31
2022-10-15T19:50:40.808Z,100292.44
2022-10-15T19:53:07.688Z,100290.84
2022-10-15T19:55:34.115Z,100288.84
2022-10-15T19:58:00.332Z,100282.81
2022-10-15T20:00:26.751Z,100282.84
2022-10-15T20:02:53.008Z,100283.66
2022-10-15T20:05:19.631Z,100282.47
2022-10-15T20:07:45.893Z,100285.69
2022-10-15T20:10:12.143Z,100284.50
2022-10-15T20:12:38.433Z,100288.13
2022-10-15T20:15:05.333Z,100285.28
2022-10-15T20:17:31.576Z,100289.75
2022-10-15T20:19:57.793Z,100299.44
2022-10-15T20:22:24.526Z,100305.09
2022-10-15T20:24:50.953Z,100301.47
2022-10-15T20:27:17.386Z,100303.50
2022-10-15T20:29:43.815Z,100304.28
2022-10-15T20:32:23.508Z,100302.69
2022-10-15T20:34:59.873Z,100297.06
2022-10-15T20:37:26.300Z,100300.69
2022-10-15T20:39:52.866Z,100305.91
2022-10-15T20:42:19.155Z,100308.72
2022-10-15T20:44:45.611Z,100316.38
2022-10-15T20:47:14.026Z,100308.28
2022-10-15T20:49:43.073Z,100325.63
2022-10-15T20:52:09.705Z,100314.72
2022-10-15T20:54:36.495Z,100331.63
2022-10-15T20:57:03.407Z,100324.38
2022-10-15T20:59:30.589Z,100319.53
2022-10-15T21:01:56.944Z,100324.78
2022-10-15T21:04:23.271Z,100334.47
2022-10-15T21:06:49.609Z,100344.09
2022-10-15T21:09:15.854Z,100344.50
2022-10-15T21:11:45.717Z,100351.75
2022-10-15T21:14:12.546Z,100352.13
2022-10-15T21:16:39.099Z,100352.13
2022-10-15T21:19:05.649Z,100361.81
2022-10-15T21:21:34.576Z,100359.78
2022-10-15T21:24:01.048Z,100377.50
2022-10-15T21:26:27.336Z,100375.47
2022-10-15T21:28:55.202Z,100383.53
2022-10-15T21:31:21.703Z,100377.09
2022-10-15T21:33:48.390Z,100383.94
2022-10-15T21:36:16.003Z,100382.34
2022-10-15T21:38:42.467Z,100380.31
2022-10-15T21:41:08.757Z,100382.34
2022-10-15T21:43:35.522Z,100385.16
2022-10-15T21:46:09.520Z,100396.44
2022-10-15T21:48:38.755Z,100392.81
2022-10-15T21:51:08.615Z,100394.41
2022-10-15T21:53:35.951Z,100396.03
2022-10-15T21:56:05.541Z,100398.84
2022-10-15T21:58:32.025Z,100404.06
2022-10-15T22:01:06.584Z,100400.44
2022-10-15T22:03:32.819Z,100400.88
2022-10-15T22:05:59.194Z,100403.69
2022-10-15T22:08:27.386Z,100416.56
2022-10-15T22:10:53.826Z,100412.94
2022-10-15T22:13:20.037Z,100419.81
2022-10-15T22:15:46.362Z,100419.81
2022-10-15T22:18:12.781Z,100413.78
2022-10-15T22:20:39.253Z,100414.97
2022-10-15T22:23:05.574Z,100407.75
2022-10-15T22:25:31.992Z,100405.34
2022-10-15T22:27:58.244Z,100407.34
2022-10-15T22:30:24.516Z,100400.13
2022-10-15T22:32:50.730Z,100403.31
2022-10-15T22:35:17.106Z,100406.56
2022-10-15T22:37:43.587Z,100408.59
2022-10-15T22:40:11.879Z,100408.16
2022-10-15T22:42:38.111Z,100409.81
2022-10-15T22:45:04.799Z,100413.00
2022-10-15T22:47:31.011Z,100412.59
2022-10-15T22:49:57.326Z,100406.97
2022-10-15T22:52:24.056Z,100409.38
2022-10-15T22:54:50.729Z,100409.38
2022-10-15T22:57:16.941Z,100410.19
2022-10-15T22:59:43.633Z,100404.94
2022-10-15T23:02:09.912Z,100399.31
2022-10-15T23:04:36.213Z,100411.81
2022-10-15T23:07:02.463Z,100421.91
2022-10-15T23:09:28.711Z,100421.47
2022-10-15T23:11:54.966Z,100415.03
2022-10-15T23:14:21.210Z,100425.94
2022-10-15T23:16:48.023Z,100427.97
2022-10-15T23:19:16.586Z,100426.75
2022-10-15T23:21:44.547Z,100428.75
2022-10-15T23:24:11.403Z,100434.81
2022-10-15T23:26:38.822Z,100424.34
2022-10-15T23:29:06.168Z,100421.94
2022-10-15T23:31:33.568Z,100429.59
2022-10-15T23:34:00.283Z,100433.59
2022-10-15T23:36:27.188Z,100442.88
2022-10-15T23:38:58.350Z,100440.47
2022-10-15T23:41:25.456Z,100447.31
2022-10-15T23:43:51.894Z,100436.06
2022-10-15T23:46:18.807Z,100432.03
2022-10-15T23:48:45.222Z,100429.63
2022-10-15T23:51:15.272Z,100435.66
2022-10-15T23:53:41.611Z,100432.44
2022-10-15T23:56:08.330Z,100434.88
2022-10-15T23:58:34.799Z,100438.06
